• Join FlightAware (Why Join?)
  • Login
  • US Flag 
08:57AM EDT


 

Airport Tracker/Info


-or-


 

Live Flight TrackerFlight Track Log ✈ ASQ5941 ✈ 03-Jul-2013 ✈ KAVP - KORD

Flight Track Log - Related Links

Times and Time Zones

All times are in EDT time to prevent confusion due to time zone crossing. See the ASQ5941 flight status page for this flight to view local times or setup timezone preferences in your user account.

Time Position Orientation Groundspeed Altitude Reporting Facility
EDT Latitude Longitude Course Direction KTS MPH feet Rate Location/Type
05:33PM 41.4153 -75.8886 341° North 292 336 8,500  Level New York Center
05:34PM 41.4823 -76.0375 315° West  Level FlightAware Approximate
05:34PM 41.4911 -75.9194 343° North 298 343 10,000  Level New York Center
05:35PM 41.5401 -76.1185 312° West  Level FlightAware Approximate
05:35PM 41.5836 -75.9486 347° North 325 374 10,100  Level New York Center
05:36PM 41.5948 -76.2034 307° West  Level FlightAware Approximate
05:36PM 41.6872 -75.9594 356° North 360 414 10,000  Level New York Center
05:37PM 41.6458 -76.2926 307° West  Level FlightAware Approximate
05:37PM 41.7947 -75.9761 353° North 363 418 11,900  Level New York Center
05:38PM 41.6959 -76.3826 307° West  Level FlightAware Approximate
05:38PM 41.8444 -76.0775 303° West 304 350 13,000  Level New York Center
05:39PM 41.8511 -76.2033 274° West 323 372 13,900 900 Climbing New York Center
05:40PM 41.8542 -76.3206 272° West 345 397 14,900 1,380 Climbing New York Center
05:41PM 41.8639 -76.4664 275° West 357 411 16,700 1,680 Climbing New York Center
05:42PM 41.8664 -76.5864 272° West 349 402 18,300 1,260 Climbing New York Center
05:43PM 41.8728 -76.7094 274° West 344 396 19,300 960 Climbing New York Center
05:44PM 41.8789 -76.8381 274° West 344 396 20,300 960 Climbing New York Center
05:45PM 41.8931 -76.9675 278° West 344 396 21,300 900 Climbing New York Center
05:46PM 41.9192 -77.0808 287° West 359 413 22,000 900 Climbing Cleveland Center
05:47PM 41.9539 -77.1933 293° West 375 432 23,000 960 Climbing Cleveland Center
05:48PM 41.9867 -77.3203 289° West 363 418 24,000 960 Climbing Cleveland Center
05:49PM 42.0214 -77.4469 290° West 363 418 25,000 960 Climbing Cleveland Center
05:50PM 42.0561 -77.5711 291° West 363 418 26,000 960 Climbing Cleveland Center
05:51PM 42.0886 -77.6983 289° West 363 418 27,000 960 Climbing Cleveland Center
05:52PM 42.1208 -77.8256 289° West 363 418 28,000 960 Climbing Cleveland Center
05:53PM 42.1550 -77.9503 290° West 363 418 29,000 960 Climbing Cleveland Center
05:54PM 42.1869 -78.0750 289° West 363 418 30,000 960 Climbing Cleveland Center
05:55PM 42.2189 -78.2028 289° West 363 418 31,000 960 Climbing Cleveland Center
05:56PM 42.2528 -78.3278 290° West 363 418 32,000 960 Climbing Cleveland Center
05:57PM 42.2842 -78.4531 289° West 358 412 33,000 900 Climbing Cleveland Center
05:58PM 42.3156 -78.5783 289° West 358 412 33,900 840 Climbing Cleveland Center
05:59PM 42.3469 -78.7064 288° West 358 412 34,700 780 Climbing Cleveland Center
06:00PM 42.3825 -78.8347 291° West 363 418 35,500 600 Climbing Cleveland Center
06:01PM 42.4156 -78.9717 288° West 363 418 36,000 240 Climbing Cleveland Center
06:02PM 42.4444 -79.0975 287° West 369 425 36,000  Level Cleveland Center
06:03PM 42.4817 -79.2347 290° West 380 437 36,000  Level Cleveland Center
06:04PM 42.4997 -79.3806 280° West 385 443 36,000  Level Cleveland Center
06:05PM 42.5033 -79.5242 272° West 390 449 36,000  Level Cleveland Center
06:06PM 42.5128 -79.6733 275° West 395 455 36,000  Level Cleveland Center
06:07PM 42.5203 -79.8225 274° West 395 455 36,000  Level Cleveland Center
06:08PM 42.5253 -79.9858 272° West 400 460 36,000  Level Cleveland Center
06:09PM 42.5303 -80.1325 273° West 400 460 36,000  Level Cleveland Center
06:10PM 42.5389 -80.2817 275° West 403 464 36,000  Level Cleveland Center
06:11PM 42.5436 -80.4283 273° West 403 464 36,000  Level Cleveland Center
06:12PM 42.5497 -80.5747 273° West 403 464 36,000  Level Cleveland Center
06:13PM 42.5539 -80.7044 273° West 398 458 36,000  Level Cleveland Center
06:14PM 42.5600 -80.8567 273° West 403 464 36,000  Level Cleveland Center
06:15PM 42.5658 -81.0006 273° West 403 464 36,000  Level Cleveland Center
06:16PM 42.5692 -81.1469 272° West 397 457 36,000  Level Cleveland Center
06:17PM 42.5769 -81.2908 274° West 397 457 36,000  Level Cleveland Center
06:18PM 42.5819 -81.4403 273° West 397 457 36,000  Level Cleveland Center
06:19PM 42.6081 -81.5847 284° West 397 457 36,000  Level Cleveland Center
06:20PM 42.6336 -81.7317 283° West 409 471 36,000  Level Cleveland Center
06:21PM 42.6592 -81.8931 282° West 399 459 36,000  Level Cleveland Center
06:22PM 42.6864 -82.0433 284° West 399 459 36,000  Level Cleveland Center
06:23PM 42.7117 -82.1908 283° West 399 459 36,000  Level Cleveland Center
06:24PM 42.7364 -82.3386 283° West 404 465 36,000  Level Cleveland Center
06:25PM 42.7611 -82.4892 283° West 404 465 36,000  Level Cleveland Center
06:26PM 42.7856 -82.6428 282° West 409 471 36,000  Level Cleveland Center
06:27PM 42.8122 -82.7908 284° West 414 476 36,000  Level Cleveland Center
06:28PM 42.8383 -82.9447 283° West 414 476 36,000 -420 Level Cleveland Center
06:29PM 42.8600 -83.0928 281° West 414 476 35,200 -1,020 Descending Cleveland Center
06:30PM 42.8839 -83.2439 282° West 414 476 34,000 -720 Descending Cleveland Center
06:31PM 42.8886 -83.3914 273° West 408 470 33,800 -780 Descending Cleveland Center
06:32PM 42.8892 -83.5389 270° West 403 464 32,500 -900 Descending Cleveland Center
06:33PM 42.8894 -83.6919 270° West 403 464 32,000 -300 Descending Cleveland Center
06:34PM 42.8875 -83.8364 269° West 403 464 32,000  Level Cleveland Center
06:35PM 42.8872 -83.9867 270° West 403 464 32,000  Level Cleveland Center
06:36PM 42.8850 -84.1339 269° West 403 464 32,000  Level Cleveland Center
06:37PM 42.8842 -84.2869 270° West 403 464 32,000  Level Cleveland Center
06:39PM 42.8847 -84.4936 270° West 396 456 32,000  Level Chicago Center
06:40PM 42.8786 -84.6397 267° West 390 449 32,000  Level Chicago Center
06:41PM 42.8597 -84.8078 261° West 376 433 32,000  Level Chicago Center
06:42PM 42.8461 -84.9494 263° West 378 435 32,000  Level Chicago Center
06:43PM 42.8311 -85.0894 262° West 375 432 32,000 -60 Level Chicago Center
06:44PM 42.8156 -85.2300 261° West 374 430 31,900 -600 Descending Chicago Center
06:45PM 42.8003 -85.3700 262° West 375 432 30,800 -1,200 Descending Chicago Center
06:46PM 42.7847 -85.5089 261° West 371 427 29,500 -1,560 Descending Chicago Center
06:47PM 42.7603 -85.6403 256° West 359 413 27,600 -2,040 Descending Chicago Center
06:48PM 42.7311 -85.7994 256° West 360 414 25,400 -2,040 Descending Chicago Center
06:49PM 42.7075 -85.9331 257° West 361 415 23,500 -1,860 Descending Chicago Center
06:50PM 42.6825 -86.0683 256° West 365 420 21,600 -1,680 Descending Chicago Center
06:51PM 42.6578 -86.2053 256° West 370 426 20,100 -840 Descending Chicago Center
06:52PM 42.6325 -86.3358 255° West 360 414 19,900 -840 Descending Chicago Center
06:53PM 42.6086 -86.4639 256° West 352 405 18,400 -1,500 Descending Chicago Center
06:54PM 42.5853 -86.5906 256° West 347 399 16,800 -1,740 Descending Chicago Center
06:55PM 42.5572 -86.7394 256° West 339 390 14,800 -1,740 Descending Chicago Center
06:56PM 42.5258 -86.8550 250° West 329 379 13,200 -1,500 Descending Chicago Center
06:57PM 42.4947 -86.9672 249° West 321 369 11,700 -1,380 Descending Chicago Center
06:58PM 42.4672 -87.0664 249° West 284 327 10,400 -1,260 Descending Chicago Center
06:59PM 42.4406 -87.1642 250° West 279 321 9,100 -840 Descending Chicago Center
07:00PM 42.4142 -87.2597 250° West 274 315 8,700 -1,020 Descending Chicago Center
07:02PM 42.3833 -87.3711 249° West 265 305 7,000 -1,320 Descending Chicago Center
07:03PM 42.3586 -87.4581 249° West 255 293 6,000 -540 Descending Chicago Center
07:04PM 42.3208 -87.5439 239° Southwest 263 303 6,000 -240 Level Chicago Center
07:05PM 42.2500 -87.5358 175° South 254 292 5,600 -540 Descending Chicago Center
07:06PM 42.1789 -87.5228 172° South 261 300 4,900 -780 Descending Chicago Center
07:07PM 42.1156 -87.4856 156° South 253 291 4,000 -480 Descending Chicago Center
07:08PM 42.0389 -87.4439 158° South 251 289 4,000  Level Chicago Center
07:09PM 42.0014 -87.5008 228° Southwest 239 275 4,000  Level Chicago Center
07:10PM 42.0028 -87.5814 271° West 225 259 4,000  Level Chicago Center
07:11PM 42.0025 -87.6614 270° West 220 253 4,000  Level Chicago Center